Harmony, Illinois
Current Conditions -  °F | °C
As of 3:15 PM on Wednesday 26 Nov 2014 (Local Time) from KMQB Reporting Station
Light Snow Light Snow  
Wind Chill: 22°   Ceiling: 600
Heat Index: 31°   Visibility: 1.5mi
Dew Point: 31°   Wind: 12mph
Humidity: 98%   Direction: 100°E
Pressure: 30.04"   Gusts: NA
Location:  40.4155°N, 91.0269°W
Report Text: KMQB 262115Z AUTO 10010KT 1 1/2SM -SN OVC006 00/M01 A3004 RMK AO2 T10051008
Loading
Personal Weather Stations






























Interactive Weather Map New forecast layout! Learn more

10-Day Weather Forecast

Advertisements
Track Severe Weather on mobile